sensor_id;sensor_type;location;lat;lon;timestamp;P1;durP1;ratioP1;P2;durP2;ratioP2
52534;SDS011;38443;53.164;5.802;2023-07-13T00:00:52;4.43;;;2.05;;
52534;SDS011;38443;53.164;5.802;2023-07-13T00:03:18;3.30;;;2.85;;
52534;SDS011;38443;53.164;5.802;2023-07-13T00:05:43;10.90;;;2.17;;
52534;SDS011;38443;53.164;5.802;2023-07-13T00:08:08;3.78;;;2.10;;
52534;SDS011;38443;53.164;5.802;2023-07-13T00:10:38;4.93;;;1.60;;
52534;SDS011;38443;53.164;5.802;2023-07-13T00:13:05;4.43;;;1.70;;
52534;SDS011;38443;53.164;5.802;2023-07-13T00:15:30;4.00;;;3.10;;
52534;SDS011;38443;53.164;5.802;2023-07-13T00:17:56;6.03;;;2.88;;
52534;SDS011;38443;53.164;5.802;2023-07-13T00:20:22;2.67;;;1.58;;
52534;SDS011;38443;53.164;5.802;2023-07-13T00:22:50;5.22;;;1.80;;
52534;SDS011;38443;53.164;5.802;2023-07-13T00:25:18;2.75;;;1.25;;
52534;SDS011;38443;53.164;5.802;2023-07-13T00:27:44;3.85;;;1.88;;
52534;SDS011;38443;53.164;5.802;2023-07-13T00:30:10;5.93;;;1.40;;
52534;SDS011;38443;53.164;5.802;2023-07-13T00:32:35;2.88;;;1.50;;
52534;SDS011;38443;53.164;5.802;2023-07-13T00:35:02;4.85;;;1.48;;
52534;SDS011;38443;53.164;5.802;2023-07-13T00:37:29;2.20;;;1.25;;
52534;SDS011;38443;53.164;5.802;2023-07-13T00:39:55;2.60;;;1.17;;
52534;SDS011;38443;53.164;5.802;2023-07-13T00:42:20;2.28;;;1.40;;
52534;SDS011;38443;53.164;5.802;2023-07-13T00:47:32;2.60;;;1.73;;
52534;SDS011;38443;53.164;5.802;2023-07-13T00:49:57;2.88;;;1.17;;
52534;SDS011;38443;53.164;5.802;2023-07-13T00:52:23;1.58;;;1.38;;
52534;SDS011;38443;53.164;5.802;2023-07-13T00:54:48;2.33;;;1.27;;
52534;SDS011;38443;53.164;5.802;2023-07-13T00:57:15;2.78;;;1.50;;
52534;SDS011;38443;53.164;5.802;2023-07-13T00:59:44;1.40;;;1.30;;
52534;SDS011;38443;53.164;5.802;2023-07-13T01:02:12;2.38;;;1.40;;
52534;SDS011;38443;53.164;5.802;2023-07-13T01:04:37;1.77;;;1.25;;
52534;SDS011;38443;53.164;5.802;2023-07-13T01:07:03;6.43;;;1.38;;
52534;SDS011;38443;53.164;5.802;2023-07-13T01:09:31;2.72;;;1.10;;
52534;SDS011;38443;53.164;5.802;2023-07-13T01:11:56;2.95;;;1.40;;
52534;SDS011;38443;53.164;5.802;2023-07-13T01:14:22;2.75;;;1.25;;
52534;SDS011;38443;53.164;5.802;2023-07-13T01:16:47;2.40;;;1.50;;
52534;SDS011;38443;53.164;5.802;2023-07-13T01:19:35;2.10;;;1.10;;
52534;SDS011;38443;53.164;5.802;2023-07-13T01:22:03;3.15;;;1.63;;
52534;SDS011;38443;53.164;5.802;2023-07-13T01:24:34;2.33;;;1.45;;
52534;SDS011;38443;53.164;5.802;2023-07-13T01:27:02;2.70;;;1.50;;
52534;SDS011;38443;53.164;5.802;2023-07-13T01:29:27;2.67;;;1.35;;
52534;SDS011;38443;53.164;5.802;2023-07-13T01:31:53;2.13;;;1.38;;
52534;SDS011;38443;53.164;5.802;2023-07-13T01:34:18;5.78;;;1.48;;
52534;SDS011;38443;53.164;5.802;2023-07-13T01:36:44;2.25;;;1.60;;
52534;SDS011;38443;53.164;5.802;2023-07-13T01:39:09;3.30;;;1.70;;
52534;SDS011;38443;53.164;5.802;2023-07-13T01:41:34;3.78;;;1.65;;
52534;SDS011;38443;53.164;5.802;2023-07-13T01:44:00;3.53;;;1.95;;
52534;SDS011;38443;53.164;5.802;2023-07-13T01:46:25;4.63;;;1.80;;
52534;SDS011;38443;53.164;5.802;2023-07-13T01:48:51;3.28;;;1.67;;
52534;SDS011;38443;53.164;5.802;2023-07-13T01:51:18;4.25;;;1.70;;
52534;SDS011;38443;53.164;5.802;2023-07-13T01:53:44;5.03;;;1.70;;
52534;SDS011;38443;53.164;5.802;2023-07-13T01:56:10;2.33;;;1.67;;
52534;SDS011;38443;53.164;5.802;2023-07-13T01:58:36;3.05;;;1.45;;
52534;SDS011;38443;53.164;5.802;2023-07-13T02:01:01;4.47;;;1.70;;
52534;SDS011;38443;53.164;5.802;2023-07-13T02:03:26;4.13;;;1.80;;
52534;SDS011;38443;53.164;5.802;2023-07-13T02:05:52;8.00;;;2.85;;
52534;SDS011;38443;53.164;5.802;2023-07-13T02:08:17;11.50;;;2.00;;
52534;SDS011;38443;53.164;5.802;2023-07-13T02:10:43;5.63;;;2.10;;
52534;SDS011;38443;53.164;5.802;2023-07-13T02:13:08;2.33;;;1.77;;
52534;SDS011;38443;53.164;5.802;2023-07-13T02:15:33;4.45;;;1.80;;
52534;SDS011;38443;53.164;5.802;2023-07-13T02:17:59;6.90;;;2.10;;
52534;SDS011;38443;53.164;5.802;2023-07-13T02:20:24;5.03;;;2.05;;
52534;SDS011;38443;53.164;5.802;2023-07-13T02:22:51;6.22;;;2.60;;
52534;SDS011;38443;53.164;5.802;2023-07-13T02:25:17;2.20;;;1.58;;
52534;SDS011;38443;53.164;5.802;2023-07-13T02:27:42;3.92;;;2.78;;
52534;SDS011;38443;53.164;5.802;2023-07-13T02:30:07;8.50;;;2.15;;
52534;SDS011;38443;53.164;5.802;2023-07-13T02:32:33;3.00;;;1.73;;
52534;SDS011;38443;53.164;5.802;2023-07-13T02:34:59;8.23;;;2.83;;
52534;SDS011;38443;53.164;5.802;2023-07-13T02:37:24;6.75;;;2.40;;
52534;SDS011;38443;53.164;5.802;2023-07-13T02:39:50;3.35;;;1.92;;
52534;SDS011;38443;53.164;5.802;2023-07-13T02:42:15;6.43;;;2.70;;
52534;SDS011;38443;53.164;5.802;2023-07-13T02:44:41;8.40;;;2.83;;
52534;SDS011;38443;53.164;5.802;2023-07-13T02:47:06;7.22;;;2.92;;
52534;SDS011;38443;53.164;5.802;2023-07-13T02:49:31;4.50;;;2.17;;
52534;SDS011;38443;53.164;5.802;2023-07-13T02:51:57;7.78;;;2.60;;
52534;SDS011;38443;53.164;5.802;2023-07-13T02:54:22;3.35;;;2.10;;
52534;SDS011;38443;53.164;5.802;2023-07-13T02:56:48;6.47;;;2.60;;
52534;SDS011;38443;53.164;5.802;2023-07-13T02:59:13;4.32;;;2.70;;
52534;SDS011;38443;53.164;5.802;2023-07-13T03:01:42;3.92;;;2.38;;
52534;SDS011;38443;53.164;5.802;2023-07-13T03:04:07;6.10;;;2.50;;
52534;SDS011;38443;53.164;5.802;2023-07-13T03:06:33;9.88;;;2.90;;
52534;SDS011;38443;53.164;5.802;2023-07-13T03:08:59;5.63;;;2.58;;
52534;SDS011;38443;53.164;5.802;2023-07-13T03:11:25;7.30;;;3.10;;
52534;SDS011;38443;53.164;5.802;2023-07-13T03:13:51;8.27;;;3.17;;
52534;SDS011;38443;53.164;5.802;2023-07-13T03:16:17;8.40;;;2.90;;
52534;SDS011;38443;53.164;5.802;2023-07-13T03:18:42;7.18;;;3.20;;
52534;SDS011;38443;53.164;5.802;2023-07-13T03:21:08;6.72;;;2.88;;
52534;SDS011;38443;53.164;5.802;2023-07-13T03:23:33;8.90;;;3.15;;
52534;SDS011;38443;53.164;5.802;2023-07-13T03:28:32;7.55;;;2.72;;
52534;SDS011;38443;53.164;5.802;2023-07-13T03:31:01;7.65;;;3.10;;
52534;SDS011;38443;53.164;5.802;2023-07-13T03:33:31;4.72;;;2.90;;
52534;SDS011;38443;53.164;5.802;2023-07-13T03:35:58;6.85;;;3.40;;
52534;SDS011;38443;53.164;5.802;2023-07-13T03:38:24;9.15;;;3.05;;
52534;SDS011;38443;53.164;5.802;2023-07-13T03:40:50;5.15;;;3.08;;
52534;SDS011;38443;53.164;5.802;2023-07-13T03:43:15;9.23;;;3.42;;
52534;SDS011;38443;53.164;5.802;2023-07-13T03:45:41;5.38;;;2.80;;
52534;SDS011;38443;53.164;5.802;2023-07-13T03:48:06;7.63;;;3.38;;
52534;SDS011;38443;53.164;5.802;2023-07-13T03:50:31;12.73;;;4.15;;
52534;SDS011;38443;53.164;5.802;2023-07-13T03:52:57;7.03;;;2.97;;
52534;SDS011;38443;53.164;5.802;2023-07-13T03:55:23;5.68;;;3.47;;
52534;SDS011;38443;53.164;5.802;2023-07-13T03:57:53;5.20;;;3.13;;
52534;SDS011;38443;53.164;5.802;2023-07-13T04:00:24;6.05;;;3.15;;
52534;SDS011;38443;53.164;5.802;2023-07-13T04:02:50;7.00;;;3.10;;
52534;SDS011;38443;53.164;5.802;2023-07-13T04:05:16;6.55;;;2.90;;
52534;SDS011;38443;53.164;5.802;2023-07-13T04:07:42;5.30;;;3.55;;
52534;SDS011;38443;53.164;5.802;2023-07-13T04:10:07;6.32;;;3.28;;
52534;SDS011;38443;53.164;5.802;2023-07-13T04:12:33;6.55;;;2.70;;
52534;SDS011;38443;53.164;5.802;2023-07-13T04:14:58;13.02;;;4.63;;
52534;SDS011;38443;53.164;5.802;2023-07-13T04:17:24;6.15;;;3.25;;
52534;SDS011;38443;53.164;5.802;2023-07-13T04:19:49;6.38;;;3.20;;
52534;SDS011;38443;53.164;5.802;2023-07-13T04:22:14;7.97;;;3.80;;
52534;SDS011;38443;53.164;5.802;2023-07-13T04:24:40;6.97;;;3.33;;
52534;SDS011;38443;53.164;5.802;2023-07-13T04:27:05;5.93;;;3.25;;
52534;SDS011;38443;53.164;5.802;2023-07-13T04:29:31;6.00;;;4.00;;
52534;SDS011;38443;53.164;5.802;2023-07-13T04:31:56;6.97;;;3.38;;
52534;SDS011;38443;53.164;5.802;2023-07-13T04:34:22;6.95;;;3.53;;
52534;SDS011;38443;53.164;5.802;2023-07-13T04:36:47;7.45;;;3.75;;
52534;SDS011;38443;53.164;5.802;2023-07-13T04:39:12;6.97;;;3.20;;
52534;SDS011;38443;53.164;5.802;2023-07-13T04:41:38;9.77;;;3.60;;
52534;SDS011;38443;53.164;5.802;2023-07-13T04:44:03;7.25;;;3.70;;
52534;SDS011;38443;53.164;5.802;2023-07-13T04:46:29;8.90;;;3.28;;
52534;SDS011;38443;53.164;5.802;2023-07-13T04:48:54;4.70;;;3.00;;
52534;SDS011;38443;53.164;5.802;2023-07-13T04:51:19;5.88;;;3.15;;
52534;SDS011;38443;53.164;5.802;2023-07-13T04:53:44;5.93;;;3.25;;
52534;SDS011;38443;53.164;5.802;2023-07-13T04:56:10;6.32;;;2.95;;
52534;SDS011;38443;53.164;5.802;2023-07-13T04:58:35;10.68;;;3.30;;
52534;SDS011;38443;53.164;5.802;2023-07-13T05:01:01;6.10;;;3.28;;
52534;SDS011;38443;53.164;5.802;2023-07-13T05:03:28;10.60;;;3.58;;
52534;SDS011;38443;53.164;5.802;2023-07-13T05:06:01;4.60;;;2.95;;
52534;SDS011;38443;53.164;5.802;2023-07-13T05:08:27;6.28;;;3.10;;
52534;SDS011;38443;53.164;5.802;2023-07-13T05:10:53;6.32;;;3.38;;
52534;SDS011;38443;53.164;5.802;2023-07-13T05:13:18;11.85;;;3.13;;
52534;SDS011;38443;53.164;5.802;2023-07-13T05:15:44;5.53;;;3.55;;
52534;SDS011;38443;53.164;5.802;2023-07-13T05:18:10;7.00;;;3.15;;
52534;SDS011;38443;53.164;5.802;2023-07-13T05:20:35;4.10;;;2.78;;
52534;SDS011;38443;53.164;5.802;2023-07-13T05:23:01;6.50;;;3.08;;
52534;SDS011;38443;53.164;5.802;2023-07-13T05:25:26;9.38;;;3.17;;
52534;SDS011;38443;53.164;5.802;2023-07-13T05:27:51;6.22;;;2.90;;
52534;SDS011;38443;53.164;5.802;2023-07-13T05:30:17;8.48;;;3.13;;
52534;SDS011;38443;53.164;5.802;2023-07-13T05:32:42;4.60;;;2.78;;
52534;SDS011;38443;53.164;5.802;2023-07-13T05:35:08;7.03;;;3.63;;
52534;SDS011;38443;53.164;5.802;2023-07-13T05:37:33;6.85;;;2.88;;
52534;SDS011;38443;53.164;5.802;2023-07-13T05:39:59;5.32;;;3.00;;
52534;SDS011;38443;53.164;5.802;2023-07-13T05:42:25;6.78;;;2.95;;
52534;SDS011;38443;53.164;5.802;2023-07-13T05:44:51;3.78;;;2.60;;
52534;SDS011;38443;53.164;5.802;2023-07-13T05:47:17;6.05;;;2.60;;
52534;SDS011;38443;53.164;5.802;2023-07-13T05:49:42;4.85;;;2.60;;
52534;SDS011;38443;53.164;5.802;2023-07-13T05:52:08;7.50;;;2.80;;
52534;SDS011;38443;53.164;5.802;2023-07-13T05:54:33;5.20;;;2.42;;
52534;SDS011;38443;53.164;5.802;2023-07-13T05:56:58;5.32;;;2.33;;
52534;SDS011;38443;53.164;5.802;2023-07-13T05:59:24;5.05;;;2.70;;
52534;SDS011;38443;53.164;5.802;2023-07-13T06:01:50;6.13;;;2.60;;
52534;SDS011;38443;53.164;5.802;2023-07-13T06:04:17;3.97;;;2.13;;
52534;SDS011;38443;53.164;5.802;2023-07-13T06:06:43;6.13;;;2.45;;
52534;SDS011;38443;53.164;5.802;2023-07-13T06:09:08;5.97;;;2.30;;
52534;SDS011;38443;53.164;5.802;2023-07-13T06:11:33;3.42;;;2.00;;
52534;SDS011;38443;53.164;5.802;2023-07-13T06:14:01;4.25;;;2.05;;
52534;SDS011;38443;53.164;5.802;2023-07-13T06:16:27;4.55;;;2.00;;
52534;SDS011;38443;53.164;5.802;2023-07-13T06:18:52;2.97;;;2.08;;
52534;SDS011;38443;53.164;5.802;2023-07-13T06:21:19;5.32;;;2.25;;
52534;SDS011;38443;53.164;5.802;2023-07-13T06:23:46;4.68;;;2.20;;
52534;SDS011;38443;53.164;5.802;2023-07-13T06:26:16;5.38;;;2.15;;
52534;SDS011;38443;53.164;5.802;2023-07-13T06:28:42;6.57;;;2.38;;
52534;SDS011;38443;53.164;5.802;2023-07-13T06:31:08;4.03;;;2.25;;
52534;SDS011;38443;53.164;5.802;2023-07-13T06:33:36;3.42;;;2.15;;
52534;SDS011;38443;53.164;5.802;2023-07-13T06:36:02;6.72;;;2.42;;
52534;SDS011;38443;53.164;5.802;2023-07-13T06:38:29;5.40;;;2.10;;
52534;SDS011;38443;53.164;5.802;2023-07-13T06:40:55;3.97;;;2.20;;
52534;SDS011;38443;53.164;5.802;2023-07-13T06:43:20;4.00;;;1.80;;
52534;SDS011;38443;53.164;5.802;2023-07-13T06:45:46;5.65;;;2.38;;
52534;SDS011;38443;53.164;5.802;2023-07-13T06:48:14;6.10;;;1.85;;
52534;SDS011;38443;53.164;5.802;2023-07-13T06:50:40;2.33;;;1.42;;
52534;SDS011;38443;53.164;5.802;2023-07-13T06:53:06;2.85;;;1.85;;
52534;SDS011;38443;53.164;5.802;2023-07-13T06:55:32;4.05;;;1.83;;
52534;SDS011;38443;53.164;5.802;2023-07-13T06:57:57;4.40;;;1.80;;
52534;SDS011;38443;53.164;5.802;2023-07-13T07:00:23;3.88;;;1.55;;
52534;SDS011;38443;53.164;5.802;2023-07-13T07:02:48;5.82;;;1.65;;
52534;SDS011;38443;53.164;5.802;2023-07-13T07:05:13;4.60;;;1.67;;
52534;SDS011;38443;53.164;5.802;2023-07-13T07:07:39;5.53;;;1.80;;
52534;SDS011;38443;53.164;5.802;2023-07-13T07:10:04;5.43;;;1.70;;
52534;SDS011;38443;53.164;5.802;2023-07-13T07:12:30;2.75;;;1.63;;
52534;SDS011;38443;53.164;5.802;2023-07-13T07:14:56;3.30;;;2.15;;
52534;SDS011;38443;53.164;5.802;2023-07-13T07:17:22;3.38;;;1.60;;
52534;SDS011;38443;53.164;5.802;2023-07-13T07:19:48;3.13;;;1.67;;
52534;SDS011;38443;53.164;5.802;2023-07-13T07:22:13;4.63;;;1.85;;
52534;SDS011;38443;53.164;5.802;2023-07-13T07:24:38;3.58;;;1.67;;
52534;SDS011;38443;53.164;5.802;2023-07-13T07:27:04;4.70;;;2.50;;
52534;SDS011;38443;53.164;5.802;2023-07-13T07:29:30;3.13;;;2.03;;
52534;SDS011;38443;53.164;5.802;2023-07-13T07:31:55;5.75;;;2.55;;
52534;SDS011;38443;53.164;5.802;2023-07-13T07:34:20;3.25;;;2.08;;
52534;SDS011;38443;53.164;5.802;2023-07-13T07:36:46;6.90;;;3.20;;
52534;SDS011;38443;53.164;5.802;2023-07-13T07:39:11;4.70;;;2.30;;
52534;SDS011;38443;53.164;5.802;2023-07-13T07:41:37;11.55;;;5.35;;
52534;SDS011;38443;53.164;5.802;2023-07-13T07:44:03;3.25;;;1.95;;
52534;SDS011;38443;53.164;5.802;2023-07-13T07:46:29;7.50;;;3.85;;
52534;SDS011;38443;53.164;5.802;2023-07-13T07:48:55;10.60;;;5.35;;
52534;SDS011;38443;53.164;5.802;2023-07-13T07:51:20;5.53;;;2.03;;
52534;SDS011;38443;53.164;5.802;2023-07-13T07:53:46;12.02;;;5.63;;
52534;SDS011;38443;53.164;5.802;2023-07-13T07:56:12;5.63;;;2.25;;
52534;SDS011;38443;53.164;5.802;2023-07-13T07:58:37;3.92;;;1.85;;
52534;SDS011;38443;53.164;5.802;2023-07-13T08:01:03;5.63;;;1.95;;
52534;SDS011;38443;53.164;5.802;2023-07-13T08:03:32;3.47;;;2.08;;
52534;SDS011;38443;53.164;5.802;2023-07-13T08:05:57;3.13;;;1.90;;
52534;SDS011;38443;53.164;5.802;2023-07-13T08:08:23;4.10;;;1.95;;
52534;SDS011;38443;53.164;5.802;2023-07-13T08:10:52;3.00;;;2.10;;
52534;SDS011;38443;53.164;5.802;2023-07-13T08:13:17;2.60;;;1.60;;
52534;SDS011;38443;53.164;5.802;2023-07-13T08:15:43;4.30;;;1.85;;
52534;SDS011;38443;53.164;5.802;2023-07-13T08:18:08;3.88;;;1.80;;
52534;SDS011;38443;53.164;5.802;2023-07-13T08:20:37;4.78;;;1.98;;
52534;SDS011;38443;53.164;5.802;2023-07-13T08:23:04;2.80;;;1.80;;
52534;SDS011;38443;53.164;5.802;2023-07-13T08:25:29;4.18;;;1.77;;
52534;SDS011;38443;53.164;5.802;2023-07-13T08:27:55;4.75;;;1.90;;
52534;SDS011;38443;53.164;5.802;2023-07-13T08:30:20;7.38;;;1.75;;
52534;SDS011;38443;53.164;5.802;2023-07-13T08:32:46;6.78;;;2.03;;
52534;SDS011;38443;53.164;5.802;2023-07-13T08:35:11;6.22;;;2.28;;
52534;SDS011;38443;53.164;5.802;2023-07-13T08:37:38;4.03;;;1.77;;
52534;SDS011;38443;53.164;5.802;2023-07-13T08:40:04;2.40;;;1.58;;
52534;SDS011;38443;53.164;5.802;2023-07-13T08:45:06;4.00;;;1.45;;
52534;SDS011;38443;53.164;5.802;2023-07-13T08:47:37;3.35;;;1.75;;
52534;SDS011;38443;53.164;5.802;2023-07-13T08:50:05;1.23;;;1.00;;
52534;SDS011;38443;53.164;5.802;2023-07-13T08:52:39;2.80;;;1.58;;
52534;SDS011;38443;53.164;5.802;2023-07-13T08:55:12;1.42;;;1.27;;
52534;SDS011;38443;53.164;5.802;2023-07-13T08:57:43;3.55;;;1.55;;
52534;SDS011;38443;53.164;5.802;2023-07-13T09:00:13;2.38;;;1.60;;
52534;SDS011;38443;53.164;5.802;2023-07-13T09:02:48;2.67;;;1.55;;
52534;SDS011;38443;53.164;5.802;2023-07-13T09:05:30;3.38;;;1.67;;
52534;SDS011;38443;53.164;5.802;2023-07-13T09:10:58;2.90;;;1.58;;
52534;SDS011;38443;53.164;5.802;2023-07-13T09:16:02;3.45;;;1.70;;
52534;SDS011;38443;53.164;5.802;2023-07-13T09:18:30;2.50;;;1.67;;
52534;SDS011;38443;53.164;5.802;2023-07-13T09:21:10;2.15;;;1.35;;
52534;SDS011;38443;53.164;5.802;2023-07-13T09:23:40;2.53;;;1.55;;
52534;SDS011;38443;53.164;5.802;2023-07-13T09:28:41;3.53;;;1.58;;
52534;SDS011;38443;53.164;5.802;2023-07-13T09:31:13;6.15;;;2.00;;
52534;SDS011;38443;53.164;5.802;2023-07-13T09:33:40;3.20;;;1.40;;
52534;SDS011;38443;53.164;5.802;2023-07-13T09:36:16;4.65;;;2.08;;
52534;SDS011;38443;53.164;5.802;2023-07-13T09:38:44;1.08;;;0.98;;
52534;SDS011;38443;53.164;5.802;2023-07-13T09:41:28;2.88;;;1.27;;
52534;SDS011;38443;53.164;5.802;2023-07-13T09:44:10;1.73;;;1.13;;
52534;SDS011;38443;53.164;5.802;2023-07-13T09:46:43;3.22;;;1.30;;
52534;SDS011;38443;53.164;5.802;2023-07-13T09:49:10;3.20;;;1.60;;
52534;SDS011;38443;53.164;5.802;2023-07-13T09:51:40;2.83;;;1.42;;
52534;SDS011;38443;53.164;5.802;2023-07-13T09:54:20;2.42;;;1.50;;
52534;SDS011;38443;53.164;5.802;2023-07-13T09:56:50;2.55;;;1.88;;
52534;SDS011;38443;53.164;5.802;2023-07-13T09:59:20;2.95;;;1.63;;
52534;SDS011;38443;53.164;5.802;2023-07-13T10:01:49;2.80;;;1.42;;
52534;SDS011;38443;53.164;5.802;2023-07-13T10:04:17;3.17;;;1.77;;
52534;SDS011;38443;53.164;5.802;2023-07-13T10:06:44;3.30;;;2.33;;
52534;SDS011;38443;53.164;5.802;2023-07-13T10:09:14;5.38;;;1.95;;
52534;SDS011;38443;53.164;5.802;2023-07-13T10:11:40;3.70;;;1.40;;
52534;SDS011;38443;53.164;5.802;2023-07-13T10:14:20;3.65;;;1.95;;
52534;SDS011;38443;53.164;5.802;2023-07-13T10:16:52;3.22;;;2.15;;
52534;SDS011;38443;53.164;5.802;2023-07-13T10:19:25;3.42;;;2.08;;
52534;SDS011;38443;53.164;5.802;2023-07-13T10:21:57;3.13;;;2.00;;
52534;SDS011;38443;53.164;5.802;2023-07-13T10:24:26;4.05;;;2.47;;
52534;SDS011;38443;53.164;5.802;2023-07-13T10:30:09;3.38;;;2.03;;
52534;SDS011;38443;53.164;5.802;2023-07-13T10:32:39;4.10;;;1.98;;
52534;SDS011;38443;53.164;5.802;2023-07-13T10:35:05;7.93;;;2.35;;
52534;SDS011;38443;53.164;5.802;2023-07-13T10:37:39;4.53;;;2.40;;
52534;SDS011;38443;53.164;5.802;2023-07-13T10:40:13;2.97;;;1.92;;
52534;SDS011;38443;53.164;5.802;2023-07-13T10:42:44;3.20;;;1.70;;
52534;SDS011;38443;53.164;5.802;2023-07-13T10:45:17;3.40;;;1.85;;
52534;SDS011;38443;53.164;5.802;2023-07-13T10:47:44;3.22;;;1.77;;
52534;SDS011;38443;53.164;5.802;2023-07-13T10:50:21;6.57;;;2.45;;
52534;SDS011;38443;53.164;5.802;2023-07-13T10:53:00;3.08;;;1.90;;
52534;SDS011;38443;53.164;5.802;2023-07-13T10:58:15;5.20;;;2.05;;
52534;SDS011;38443;53.164;5.802;2023-07-13T11:00:57;3.85;;;2.03;;
52534;SDS011;38443;53.164;5.802;2023-07-13T11:03:28;3.08;;;1.55;;
52534;SDS011;38443;53.164;5.802;2023-07-13T11:08:55;3.78;;;1.85;;
52534;SDS011;38443;53.164;5.802;2023-07-13T11:11:42;4.45;;;1.50;;
52534;SDS011;38443;53.164;5.802;2023-07-13T11:16:53;3.70;;;1.83;;
52534;SDS011;38443;53.164;5.802;2023-07-13T11:27:51;4.53;;;2.08;;
52534;SDS011;38443;53.164;5.802;2023-07-13T11:30:24;5.15;;;2.03;;
52534;SDS011;38443;53.164;5.802;2023-07-13T11:38:30;4.28;;;1.88;;
52534;SDS011;38443;53.164;5.802;2023-07-13T11:41:15;4.03;;;2.00;;
52534;SDS011;38443;53.164;5.802;2023-07-13T11:43:44;4.22;;;2.22;;
52534;SDS011;38443;53.164;5.802;2023-07-13T11:46:14;4.90;;;1.95;;
52534;SDS011;38443;53.164;5.802;2023-07-13T11:48:50;3.42;;;1.95;;
52534;SDS011;38443;53.164;5.802;2023-07-13T11:51:23;2.90;;;1.58;;
52534;SDS011;38443;53.164;5.802;2023-07-13T11:53:54;4.70;;;1.90;;
52534;SDS011;38443;53.164;5.802;2023-07-13T11:56:22;2.25;;;1.50;;
52534;SDS011;38443;53.164;5.802;2023-07-13T11:58:49;3.88;;;1.98;;
52534;SDS011;38443;53.164;5.802;2023-07-13T12:01:25;2.85;;;1.70;;
52534;SDS011;38443;53.164;5.802;2023-07-13T12:03:57;4.30;;;1.70;;
52534;SDS011;38443;53.164;5.802;2023-07-13T12:06:27;5.82;;;1.80;;
52534;SDS011;38443;53.164;5.802;2023-07-13T12:08:57;5.05;;;1.98;;
52534;SDS011;38443;53.164;5.802;2023-07-13T12:11:24;3.50;;;2.13;;
52534;SDS011;38443;53.164;5.802;2023-07-13T12:13:49;4.88;;;2.05;;
52534;SDS011;38443;53.164;5.802;2023-07-13T12:16:23;3.15;;;1.73;;
52534;SDS011;38443;53.164;5.802;2023-07-13T12:18:54;3.75;;;1.67;;
52534;SDS011;38443;53.164;5.802;2023-07-13T12:21:22;2.45;;;1.80;;
52534;SDS011;38443;53.164;5.802;2023-07-13T12:23:52;4.82;;;2.17;;
52534;SDS011;38443;53.164;5.802;2023-07-13T12:26:18;3.53;;;1.90;;
52534;SDS011;38443;53.164;5.802;2023-07-13T12:28:53;4.30;;;2.25;;
52534;SDS011;38443;53.164;5.802;2023-07-13T12:31:35;4.20;;;2.30;;
52534;SDS011;38443;53.164;5.802;2023-07-13T12:34:10;4.32;;;2.30;;
52534;SDS011;38443;53.164;5.802;2023-07-13T12:36:40;7.38;;;2.30;;
52534;SDS011;38443;53.164;5.802;2023-07-13T12:39:19;5.40;;;2.42;;
52534;SDS011;38443;53.164;5.802;2023-07-13T12:41:45;7.00;;;2.65;;
52534;SDS011;38443;53.164;5.802;2023-07-13T12:44:13;9.63;;;3.78;;
52534;SDS011;38443;53.164;5.802;2023-07-13T12:46:50;3.95;;;2.33;;
52534;SDS011;38443;53.164;5.802;2023-07-13T12:49:18;4.13;;;2.33;;
52534;SDS011;38443;53.164;5.802;2023-07-13T12:51:55;7.18;;;2.50;;
52534;SDS011;38443;53.164;5.802;2023-07-13T12:54:24;7.00;;;2.78;;
52534;SDS011;38443;53.164;5.802;2023-07-13T12:56:49;4.57;;;3.15;;
52534;SDS011;38443;53.164;5.802;2023-07-13T12:59:18;5.22;;;2.70;;
52534;SDS011;38443;53.164;5.802;2023-07-13T13:01:46;7.30;;;2.63;;
52534;SDS011;38443;53.164;5.802;2023-07-13T13:04:14;5.85;;;2.30;;
52534;SDS011;38443;53.164;5.802;2023-07-13T13:06:41;2.85;;;2.10;;
52534;SDS011;38443;53.164;5.802;2023-07-13T13:09:12;5.28;;;2.20;;
52534;SDS011;38443;53.164;5.802;2023-07-13T13:11:39;7.20;;;2.88;;
52534;SDS011;38443;53.164;5.802;2023-07-13T13:14:05;4.10;;;2.22;;
52534;SDS011;38443;53.164;5.802;2023-07-13T13:16:32;5.15;;;2.13;;
52534;SDS011;38443;53.164;5.802;2023-07-13T13:19:01;5.63;;;2.63;;
52534;SDS011;38443;53.164;5.802;2023-07-13T13:21:37;6.32;;;2.13;;
52534;SDS011;38443;53.164;5.802;2023-07-13T13:24:04;6.65;;;2.45;;
52534;SDS011;38443;53.164;5.802;2023-07-13T13:26:35;2.58;;;1.75;;
52534;SDS011;38443;53.164;5.802;2023-07-13T13:29:01;4.80;;;2.25;;
52534;SDS011;38443;53.164;5.802;2023-07-13T13:31:29;4.80;;;2.00;;
52534;SDS011;38443;53.164;5.802;2023-07-13T13:33:54;4.07;;;2.20;;
52534;SDS011;38443;53.164;5.802;2023-07-13T13:36:22;4.93;;;2.00;;
52534;SDS011;38443;53.164;5.802;2023-07-13T13:38:48;3.45;;;1.92;;
52534;SDS011;38443;53.164;5.802;2023-07-13T13:41:15;5.47;;;2.50;;
52534;SDS011;38443;53.164;5.802;2023-07-13T13:43:41;3.55;;;1.83;;
52534;SDS011;38443;53.164;5.802;2023-07-13T13:48:50;4.70;;;2.42;;
52534;SDS011;38443;53.164;5.802;2023-07-13T13:51:20;5.28;;;2.00;;
52534;SDS011;38443;53.164;5.802;2023-07-13T13:53:47;5.18;;;2.10;;
52534;SDS011;38443;53.164;5.802;2023-07-13T13:56:13;6.65;;;2.15;;
52534;SDS011;38443;53.164;5.802;2023-07-13T13:58:40;6.25;;;2.60;;
52534;SDS011;38443;53.164;5.802;2023-07-13T14:01:13;3.92;;;2.20;;
52534;SDS011;38443;53.164;5.802;2023-07-13T14:03:43;5.28;;;2.00;;
52534;SDS011;38443;53.164;5.802;2023-07-13T14:06:15;4.53;;;2.58;;
52534;SDS011;38443;53.164;5.802;2023-07-13T14:08:41;3.72;;;2.25;;
52534;SDS011;38443;53.164;5.802;2023-07-13T14:11:08;3.50;;;1.85;;
52534;SDS011;38443;53.164;5.802;2023-07-13T14:13:38;4.45;;;1.90;;
52534;SDS011;38443;53.164;5.802;2023-07-13T14:16:11;4.88;;;2.50;;
52534;SDS011;38443;53.164;5.802;2023-07-13T14:18:38;4.57;;;2.70;;
52534;SDS011;38443;53.164;5.802;2023-07-13T14:21:04;5.70;;;2.17;;
52534;SDS011;38443;53.164;5.802;2023-07-13T14:23:36;6.13;;;2.10;;
52534;SDS011;38443;53.164;5.802;2023-07-13T14:26:01;4.93;;;2.53;;
52534;SDS011;38443;53.164;5.802;2023-07-13T14:28:27;6.00;;;3.42;;
52534;SDS011;38443;53.164;5.802;2023-07-13T14:30:53;5.13;;;2.17;;
52534;SDS011;38443;53.164;5.802;2023-07-13T14:33:22;7.70;;;2.13;;
52534;SDS011;38443;53.164;5.802;2023-07-13T14:35:47;6.38;;;2.17;;
52534;SDS011;38443;53.164;5.802;2023-07-13T14:38:15;3.88;;;2.22;;
52534;SDS011;38443;53.164;5.802;2023-07-13T14:40:43;4.30;;;2.08;;
52534;SDS011;38443;53.164;5.802;2023-07-13T14:43:15;5.57;;;2.30;;
52534;SDS011;38443;53.164;5.802;2023-07-13T14:45:43;5.35;;;2.30;;
52534;SDS011;38443;53.164;5.802;2023-07-13T14:48:18;4.43;;;2.13;;
52534;SDS011;38443;53.164;5.802;2023-07-13T14:50:45;6.53;;;2.20;;
52534;SDS011;38443;53.164;5.802;2023-07-13T14:53:12;4.15;;;2.33;;
52534;SDS011;38443;53.164;5.802;2023-07-13T14:55:38;5.30;;;2.40;;
52534;SDS011;38443;53.164;5.802;2023-07-13T14:58:04;4.90;;;2.50;;
52534;SDS011;38443;53.164;5.802;2023-07-13T15:00:29;5.07;;;2.47;;
52534;SDS011;38443;53.164;5.802;2023-07-13T15:02:56;7.45;;;2.55;;
52534;SDS011;38443;53.164;5.802;2023-07-13T15:05:25;5.90;;;2.33;;
52534;SDS011;38443;53.164;5.802;2023-07-13T15:07:52;7.10;;;2.72;;
52534;SDS011;38443;53.164;5.802;2023-07-13T15:10:25;5.72;;;2.67;;
52534;SDS011;38443;53.164;5.802;2023-07-13T15:12:57;6.55;;;2.60;;
52534;SDS011;38443;53.164;5.802;2023-07-13T15:15:38;3.88;;;2.20;;
52534;SDS011;38443;53.164;5.802;2023-07-13T15:18:05;5.70;;;2.70;;
52534;SDS011;38443;53.164;5.802;2023-07-13T15:20:35;4.72;;;2.30;;
52534;SDS011;38443;53.164;5.802;2023-07-13T15:23:01;5.75;;;2.88;;
52534;SDS011;38443;53.164;5.802;2023-07-13T15:25:28;4.93;;;2.35;;
52534;SDS011;38443;53.164;5.802;2023-07-13T15:27:56;6.53;;;2.65;;
52534;SDS011;38443;53.164;5.802;2023-07-13T15:30:22;5.93;;;2.38;;
52534;SDS011;38443;53.164;5.802;2023-07-13T15:32:52;4.20;;;2.45;;
52534;SDS011;38443;53.164;5.802;2023-07-13T15:35:18;8.05;;;3.65;;